Pagrindinis puslapis
METAR-TAF:

METAR-TAF

Oro uostai :

Ilas, Peru

platuma: 17-41-45S, ilguma: 071-20-35W, Aukštis: 22 m

Dabartinis oras

Ataskaita buvo paskelbta 1 valandą ir 0 minutes, ne 15:00 UTC
Vėjas 7 kt iš Pietų
Temperatūra 19°C
Drėgmė 73%
Slėgis 1016 hPa
Matomumas 10 km arba daugiau
Apsiniaukę ne aukštis 4000 ft

METAR: SPLO 271500Z 18007KT 9999 OVC040 19/14 Q1016 RMK PP000

Laikas: 11:00 (16:00 UTC)

Prognozė

Ataskaita buvo paskelbta 3 valandos ir 0 minutes, ne 13:00 UTC
Prognozė galioja nuo 27 metu 12 UTC su 28 metu 12 UTC
Vėjas 6 kt iš Pietų/Pietryčių
Matomumas 10 km arba daugiau
Apsiniaukę ne aukštis 3000 ft
Nuo 27 metu 1730 UTC
Vėjas 9 kt iš Pietų/Pietvakarių
Matomumas 10 km arba daugiau
Su prošvaistėmis ne aukštis 4000 ft
Nuo 28 metu 0000 UTC
Vėjas 2 kt iš Pietų/Pietvakarių
Matomumas 10 km arba daugiau
Apsiniaukę ne aukštis 2500 ft

TAF: SPLO 271300Z 2712/2812 16006KT 9999 OVC030 TX22/2719Z TN16/2810Z FM271730 20009KT 9999 BKN040 FM280000 20002KT 9999 OVC025

Orai ataskaitas ir orų prognozės (METAR, TAF).

turimą stotys yra geltonos ir raudonos taškus žemėlapyje.

Perkelti pele per norėdami pamatyti stoties vardą.

Tada spustelėkite, norėdami matyti oro stebėjimo ir prognozės.

Norėdami pakeisti žemėlapį: spustelėkite ant žalios mygtukų su juodo kryžiaus žemyn,; žalią mygtuką su brūkšneliu, jei norite nutolinti; arba žalių rodyklių gretimoms žemėlapius.


METAR-TAF: